sensor_id;sensor_type;location;lat;lon;timestamp;P1;P2;P0
70554;PMS5003;58104;52.744;15.242;2023-07-20T00:02:01;10;10;
70554;PMS5003;58104;52.744;15.242;2023-07-20T00:04:26;10;10;
70554;PMS5003;58104;52.744;15.242;2023-07-20T00:06:51;11;11;
70554;PMS5003;58104;52.744;15.242;2023-07-20T00:09:17;11;9;
70554;PMS5003;58104;52.744;15.242;2023-07-20T00:11:48;12;12;
70554;PMS5003;58104;52.744;15.242;2023-07-20T00:14:07;10;10;
70554;PMS5003;58104;52.744;15.242;2023-07-20T00:16:33;11;11;
70554;PMS5003;58104;52.744;15.242;2023-07-20T00:18:58;10;8;
70554;PMS5003;58104;52.744;15.242;2023-07-20T00:21:23;10;10;
70554;PMS5003;58104;52.744;15.242;2023-07-20T00:23:49;10;10;
70554;PMS5003;58104;52.744;15.242;2023-07-20T00:26:14;10;10;
70554;PMS5003;58104;52.744;15.242;2023-07-20T00:28:39;10;10;
70554;PMS5003;58104;52.744;15.242;2023-07-20T00:31:05;12;12;
70554;PMS5003;58104;52.744;15.242;2023-07-20T00:33:30;14;12;
70554;PMS5003;58104;52.744;15.242;2023-07-20T00:35:56;14;14;
70554;PMS5003;58104;52.744;15.242;2023-07-20T00:38:21;12;11;
70554;PMS5003;58104;52.744;15.242;2023-07-20T00:40:47;10;9;
70554;PMS5003;58104;52.744;15.242;2023-07-20T00:43:12;8;8;
70554;PMS5003;58104;52.744;15.242;2023-07-20T00:45:37;8;8;
70554;PMS5003;58104;52.744;15.242;2023-07-20T00:48:03;9;9;
70554;PMS5003;58104;52.744;15.242;2023-07-20T00:50:28;12;12;
70554;PMS5003;58104;52.744;15.242;2023-07-20T00:52:54;11;11;
70554;PMS5003;58104;52.744;15.242;2023-07-20T00:55:18;12;10;
70554;PMS5003;58104;52.744;15.242;2023-07-20T00:57:43;10;10;
70554;PMS5003;58104;52.744;15.242;2023-07-20T01:00:09;11;11;
70554;PMS5003;58104;52.744;15.242;2023-07-20T01:02:34;11;11;
70554;PMS5003;58104;52.744;15.242;2023-07-20T01:04:59;12;12;
70554;PMS5003;58104;52.744;15.242;2023-07-20T01:07:25;11;11;
70554;PMS5003;58104;52.744;15.242;2023-07-20T01:09:52;13;12;
70554;PMS5003;58104;52.744;15.242;2023-07-20T03:47:19;8;8;
70554;PMS5003;58104;52.744;15.242;2023-07-20T03:49:44;9;8;
70554;PMS5003;58104;52.744;15.242;2023-07-20T03:52:10;10;9;
70554;PMS5003;58104;52.744;15.242;2023-07-20T03:54:35;11;11;
70554;PMS5003;58104;52.744;15.242;2023-07-20T03:57:01;9;9;
70554;PMS5003;58104;52.744;15.242;2023-07-20T03:59:26;13;11;
70554;PMS5003;58104;52.744;15.242;2023-07-20T04:01:51;14;14;
70554;PMS5003;58104;52.744;15.242;2023-07-20T04:04:17;9;9;
70554;PMS5003;58104;52.744;15.242;2023-07-20T04:06:42;10;10;
70554;PMS5003;58104;52.744;15.242;2023-07-20T04:09:07;9;9;
70554;PMS5003;58104;52.744;15.242;2023-07-20T04:11:33;11;11;
70554;PMS5003;58104;52.744;15.242;2023-07-20T04:13:58;10;10;
70554;PMS5003;58104;52.744;15.242;2023-07-20T04:16:24;10;9;
70554;PMS5003;58104;52.744;15.242;2023-07-20T04:18:49;11;10;
70554;PMS5003;58104;52.744;15.242;2023-07-20T04:21:14;11;11;
70554;PMS5003;58104;52.744;15.242;2023-07-20T04:23:40;10;10;
70554;PMS5003;58104;52.744;15.242;2023-07-20T04:26:05;10;9;
70554;PMS5003;58104;52.744;15.242;2023-07-20T04:28:31;11;11;
70554;PMS5003;58104;52.744;15.242;2023-07-20T04:31:08;13;12;
70554;PMS5003;58104;52.744;15.242;2023-07-20T04:33:21;11;11;
70554;PMS5003;58104;52.744;15.242;2023-07-20T04:35:48;11;11;
70554;PMS5003;58104;52.744;15.242;2023-07-20T04:38:13;12;12;
70554;PMS5003;58104;52.744;15.242;2023-07-20T04:40:38;10;10;
70554;PMS5003;58104;52.744;15.242;2023-07-20T04:43:03;12;10;
70554;PMS5003;58104;52.744;15.242;2023-07-20T04:45:28;9;9;
70554;PMS5003;58104;52.744;15.242;2023-07-20T04:47:54;12;12;
70554;PMS5003;58104;52.744;15.242;2023-07-20T04:50:19;14;10;
70554;PMS5003;58104;52.744;15.242;2023-07-20T04:52:44;13;13;
70554;PMS5003;58104;52.744;15.242;2023-07-20T04:55:09;19;14;
70554;PMS5003;58104;52.744;15.242;2023-07-20T04:57:35;13;13;
70554;PMS5003;58104;52.744;15.242;2023-07-20T05:00:00;12;12;
70554;PMS5003;58104;52.744;15.242;2023-07-20T05:02:26;11;11;
70554;PMS5003;58104;52.744;15.242;2023-07-20T05:04:51;13;13;
70554;PMS5003;58104;52.744;15.242;2023-07-20T05:07:16;10;10;
70554;PMS5003;58104;52.744;15.242;2023-07-20T05:09:42;12;12;
70554;PMS5003;58104;52.744;15.242;2023-07-20T05:12:07;13;13;
70554;PMS5003;58104;52.744;15.242;2023-07-20T05:14:33;13;13;
70554;PMS5003;58104;52.744;15.242;2023-07-20T05:16:58;12;12;
70554;PMS5003;58104;52.744;15.242;2023-07-20T05:19:24;12;11;
70554;PMS5003;58104;52.744;15.242;2023-07-20T05:21:49;14;14;
70554;PMS5003;58104;52.744;15.242;2023-07-20T05:24:14;15;14;
70554;PMS5003;58104;52.744;15.242;2023-07-20T05:26:39;13;13;
70554;PMS5003;58104;52.744;15.242;2023-07-20T05:29:05;12;12;
70554;PMS5003;58104;52.744;15.242;2023-07-20T05:31:30;10;10;
70554;PMS5003;58104;52.744;15.242;2023-07-20T05:33:55;11;11;
70554;PMS5003;58104;52.744;15.242;2023-07-20T05:36:21;14;14;
70554;PMS5003;58104;52.744;15.242;2023-07-20T05:38:46;10;10;
70554;PMS5003;58104;52.744;15.242;2023-07-20T05:41:11;11;11;
70554;PMS5003;58104;52.744;15.242;2023-07-20T05:43:37;12;10;
70554;PMS5003;58104;52.744;15.242;2023-07-20T05:46:02;9;9;
70554;PMS5003;58104;52.744;15.242;2023-07-20T05:48:27;11;10;
70554;PMS5003;58104;52.744;15.242;2023-07-20T05:50:53;12;10;
70554;PMS5003;58104;52.744;15.242;2023-07-20T05:53:18;11;10;
70554;PMS5003;58104;52.744;15.242;2023-07-20T05:55:44;12;12;
70554;PMS5003;58104;52.744;15.242;2023-07-20T05:58:09;12;10;
70554;PMS5003;58104;52.744;15.242;2023-07-20T06:00:34;10;10;
70554;PMS5003;58104;52.744;15.242;2023-07-20T06:03:00;13;11;
70554;PMS5003;58104;52.744;15.242;2023-07-20T06:05:25;14;12;
70554;PMS5003;58104;52.744;15.242;2023-07-20T06:07:50;13;12;
70554;PMS5003;58104;52.744;15.242;2023-07-20T06:10:16;17;15;
70554;PMS5003;58104;52.744;15.242;2023-07-20T06:12:41;13;11;
70554;PMS5003;58104;52.744;15.242;2023-07-20T06:15:16;9;9;
70554;PMS5003;58104;52.744;15.242;2023-07-20T06:17:32;12;12;
70554;PMS5003;58104;52.744;15.242;2023-07-20T06:19:57;11;11;
70554;PMS5003;58104;52.744;15.242;2023-07-20T06:22:22;10;9;
70554;PMS5003;58104;52.744;15.242;2023-07-20T06:24:48;14;12;
70554;PMS5003;58104;52.744;15.242;2023-07-20T06:27:13;11;11;
70554;PMS5003;58104;52.744;15.242;2023-07-20T06:29:38;10;8;
70554;PMS5003;58104;52.744;15.242;2023-07-20T06:32:04;10;10;
70554;PMS5003;58104;52.744;15.242;2023-07-20T06:34:29;14;11;
70554;PMS5003;58104;52.744;15.242;2023-07-20T06:36:54;14;11;
70554;PMS5003;58104;52.744;15.242;2023-07-20T06:39:20;13;13;
70554;PMS5003;58104;52.744;15.242;2023-07-20T06:41:46;10;9;
70554;PMS5003;58104;52.744;15.242;2023-07-20T06:44:11;8;8;
70554;PMS5003;58104;52.744;15.242;2023-07-20T06:46:37;2;2;
70554;PMS5003;58104;52.744;15.242;2023-07-20T06:49:02;3;3;
70554;PMS5003;58104;52.744;15.242;2023-07-20T06:51:27;0;0;
70554;PMS5003;58104;52.744;15.242;2023-07-20T06:53:53;0;0;
70554;PMS5003;58104;52.744;15.242;2023-07-20T06:56:18;0;0;
70554;PMS5003;58104;52.744;15.242;2023-07-20T06:58:43;0;0;
70554;PMS5003;58104;52.744;15.242;2023-07-20T07:01:09;0;0;
70554;PMS5003;58104;52.744;15.242;2023-07-20T07:03:34;0;0;
70554;PMS5003;58104;52.744;15.242;2023-07-20T07:06:00;0;0;
70554;PMS5003;58104;52.744;15.242;2023-07-20T07:08:25;0;0;
70554;PMS5003;58104;52.744;15.242;2023-07-20T07:10:50;0;0;
70554;PMS5003;58104;52.744;15.242;2023-07-20T07:13:16;0;0;
70554;PMS5003;58104;52.744;15.242;2023-07-20T07:15:42;0;0;
70554;PMS5003;58104;52.744;15.242;2023-07-20T07:18:06;0;0;
70554;PMS5003;58104;52.744;15.242;2023-07-20T07:20:32;0;0;
70554;PMS5003;58104;52.744;15.242;2023-07-20T07:22:57;0;0;
70554;PMS5003;58104;52.744;15.242;2023-07-20T07:25:22;0;0;
70554;PMS5003;58104;52.744;15.242;2023-07-20T07:27:48;0;0;
70554;PMS5003;58104;52.744;15.242;2023-07-20T07:30:13;0;0;
70554;PMS5003;58104;52.744;15.242;2023-07-20T07:32:38;1;1;
70554;PMS5003;58104;52.744;15.242;2023-07-20T07:35:04;1;1;
70554;PMS5003;58104;52.744;15.242;2023-07-20T07:37:29;2;2;
70554;PMS5003;58104;52.744;15.242;2023-07-20T07:39:54;3;3;
70554;PMS5003;58104;52.744;15.242;2023-07-20T07:42:20;1;1;
70554;PMS5003;58104;52.744;15.242;2023-07-20T07:44:45;2;2;
70554;PMS5003;58104;52.744;15.242;2023-07-20T07:47:11;2;2;
70554;PMS5003;58104;52.744;15.242;2023-07-20T07:49:36;3;3;
70554;PMS5003;58104;52.744;15.242;2023-07-20T07:52:02;2;2;
70554;PMS5003;58104;52.744;15.242;2023-07-20T07:54:27;3;3;
70554;PMS5003;58104;52.744;15.242;2023-07-20T07:56:52;3;3;
70554;PMS5003;58104;52.744;15.242;2023-07-20T07:59:18;4;4;
70554;PMS5003;58104;52.744;15.242;2023-07-20T08:01:43;6;4;
70554;PMS5003;58104;52.744;15.242;2023-07-20T08:04:08;4;4;
70554;PMS5003;58104;52.744;15.242;2023-07-20T08:06:34;5;5;
70554;PMS5003;58104;52.744;15.242;2023-07-20T08:08:59;5;5;
70554;PMS5003;58104;52.744;15.242;2023-07-20T08:11:24;7;7;
70554;PMS5003;58104;52.744;15.242;2023-07-20T08:13:50;5;5;
70554;PMS5003;58104;52.744;15.242;2023-07-20T08:16:15;7;7;
70554;PMS5003;58104;52.744;15.242;2023-07-20T08:18:40;7;6;
70554;PMS5003;58104;52.744;15.242;2023-07-20T08:21:06;8;8;
70554;PMS5003;58104;52.744;15.242;2023-07-20T08:23:31;10;10;
70554;PMS5003;58104;52.744;15.242;2023-07-20T08:25:57;7;7;
70554;PMS5003;58104;52.744;15.242;2023-07-20T08:28:22;8;7;
70554;PMS5003;58104;52.744;15.242;2023-07-20T08:30:48;10;9;
70554;PMS5003;58104;52.744;15.242;2023-07-20T08:33:13;8;8;
70554;PMS5003;58104;52.744;15.242;2023-07-20T08:35:38;12;10;
70554;PMS5003;58104;52.744;15.242;2023-07-20T08:38:04;12;10;
70554;PMS5003;58104;52.744;15.242;2023-07-20T08:40:29;8;8;
70554;PMS5003;58104;52.744;15.242;2023-07-20T08:42:54;9;8;
70554;PMS5003;58104;52.744;15.242;2023-07-20T08:45:20;14;10;
70554;PMS5003;58104;52.744;15.242;2023-07-20T08:47:45;9;9;
70554;PMS5003;58104;52.744;15.242;2023-07-20T08:50:11;11;10;
70554;PMS5003;58104;52.744;15.242;2023-07-20T08:52:36;11;11;
70554;PMS5003;58104;52.744;15.242;2023-07-20T08:55:01;12;12;
70554;PMS5003;58104;52.744;15.242;2023-07-20T08:57:26;14;14;
70554;PMS5003;58104;52.744;15.242;2023-07-20T08:59:51;12;11;
70554;PMS5003;58104;52.744;15.242;2023-07-20T09:02:17;12;12;
70554;PMS5003;58104;52.744;15.242;2023-07-20T09:04:42;15;14;
70554;PMS5003;58104;52.744;15.242;2023-07-20T09:07:07;12;11;
70554;PMS5003;58104;52.744;15.242;2023-07-20T09:09:33;12;11;
70554;PMS5003;58104;52.744;15.242;2023-07-20T09:11:58;11;11;
70554;PMS5003;58104;52.744;15.242;2023-07-20T09:14:24;12;12;
70554;PMS5003;58104;52.744;15.242;2023-07-20T09:16:49;9;9;
70554;PMS5003;58104;52.744;15.242;2023-07-20T09:19:14;9;9;
70554;PMS5003;58104;52.744;15.242;2023-07-20T09:21:39;8;8;
70554;PMS5003;58104;52.744;15.242;2023-07-20T09:24:05;8;7;
70554;PMS5003;58104;52.744;15.242;2023-07-20T09:26:30;8;8;
70554;PMS5003;58104;52.744;15.242;2023-07-20T09:28:56;8;8;
70554;PMS5003;58104;52.744;15.242;2023-07-20T09:31:21;8;8;
70554;PMS5003;58104;52.744;15.242;2023-07-20T09:33:47;6;6;
70554;PMS5003;58104;52.744;15.242;2023-07-20T09:36:12;6;6;
70554;PMS5003;58104;52.744;15.242;2023-07-20T09:38:37;7;7;
70554;PMS5003;58104;52.744;15.242;2023-07-20T09:41:02;5;5;
70554;PMS5003;58104;52.744;15.242;2023-07-20T09:43:28;6;6;
70554;PMS5003;58104;52.744;15.242;2023-07-20T09:45:53;7;7;
70554;PMS5003;58104;52.744;15.242;2023-07-20T09:48:18;6;6;
70554;PMS5003;58104;52.744;15.242;2023-07-20T09:50:48;7;7;
70554;PMS5003;58104;52.744;15.242;2023-07-20T09:53:11;7;6;
70554;PMS5003;58104;52.744;15.242;2023-07-20T09:55:34;5;5;
70554;PMS5003;58104;52.744;15.242;2023-07-20T09:58:00;7;6;
70554;PMS5003;58104;52.744;15.242;2023-07-20T10:00:25;6;6;
70554;PMS5003;58104;52.744;15.242;2023-07-20T10:02:51;5;5;
70554;PMS5003;58104;52.744;15.242;2023-07-20T10:05:16;4;4;
70554;PMS5003;58104;52.744;15.242;2023-07-20T10:07:43;3;3;
70554;PMS5003;58104;52.744;15.242;2023-07-20T10:10:07;4;4;
70554;PMS5003;58104;52.744;15.242;2023-07-20T10:12:32;6;6;
70554;PMS5003;58104;52.744;15.242;2023-07-20T10:14:59;8;6;
70554;PMS5003;58104;52.744;15.242;2023-07-20T10:17:23;4;4;
70554;PMS5003;58104;52.744;15.242;2023-07-20T10:19:49;3;3;
70554;PMS5003;58104;52.744;15.242;2023-07-20T10:22:14;5;5;
70554;PMS5003;58104;52.744;15.242;2023-07-20T10:24:39;5;5;
70554;PMS5003;58104;52.744;15.242;2023-07-20T10:27:05;3;3;
70554;PMS5003;58104;52.744;15.242;2023-07-20T10:29:30;5;5;
70554;PMS5003;58104;52.744;15.242;2023-07-20T10:31:55;5;5;
70554;PMS5003;58104;52.744;15.242;2023-07-20T10:34:21;6;5;
70554;PMS5003;58104;52.744;15.242;2023-07-20T10:36:46;3;3;
70554;PMS5003;58104;52.744;15.242;2023-07-20T10:41:39;6;4;
70554;PMS5003;58104;52.744;15.242;2023-07-20T10:44:02;5;5;
70554;PMS5003;58104;52.744;15.242;2023-07-20T10:46:34;4;4;
70554;PMS5003;58104;52.744;15.242;2023-07-20T10:48:58;3;3;
70554;PMS5003;58104;52.744;15.242;2023-07-20T10:51:20;3;3;
70554;PMS5003;58104;52.744;15.242;2023-07-20T10:53:43;4;3;
70554;PMS5003;58104;52.744;15.242;2023-07-20T10:56:11;5;5;
70554;PMS5003;58104;52.744;15.242;2023-07-20T10:58:34;6;4;
70554;PMS5003;58104;52.744;15.242;2023-07-20T11:01:00;2;2;
70554;PMS5003;58104;52.744;15.242;2023-07-20T11:03:26;2;2;
70554;PMS5003;58104;52.744;15.242;2023-07-20T11:05:50;4;4;
70554;PMS5003;58104;52.744;15.242;2023-07-20T11:08:34;3;3;
70554;PMS5003;58104;52.744;15.242;2023-07-20T11:10:41;4;4;
70554;PMS5003;58104;52.744;15.242;2023-07-20T11:20:22;3;3;
70554;PMS5003;58104;52.744;15.242;2023-07-20T11:22:48;4;4;
70554;PMS5003;58104;52.744;15.242;2023-07-20T11:25:13;3;3;
70554;PMS5003;58104;52.744;15.242;2023-07-20T11:30:04;3;3;
70554;PMS5003;58104;52.744;15.242;2023-07-20T11:32:29;4;4;
70554;PMS5003;58104;52.744;15.242;2023-07-20T11:34:54;2;2;
70554;PMS5003;58104;52.744;15.242;2023-07-20T11:37:20;2;2;
70554;PMS5003;58104;52.744;15.242;2023-07-20T11:39:45;3;3;
70554;PMS5003;58104;52.744;15.242;2023-07-20T11:42:11;3;3;
70554;PMS5003;58104;52.744;15.242;2023-07-20T11:44:36;2;2;
70554;PMS5003;58104;52.744;15.242;2023-07-20T11:47:02;1;1;
70554;PMS5003;58104;52.744;15.242;2023-07-20T11:49:27;3;2;
70554;PMS5003;58104;52.744;15.242;2023-07-20T11:51:52;3;3;
70554;PMS5003;58104;52.744;15.242;2023-07-20T11:54:17;2;2;
70554;PMS5003;58104;52.744;15.242;2023-07-20T11:56:43;2;2;
70554;PMS5003;58104;52.744;15.242;2023-07-20T11:59:08;2;2;
70554;PMS5003;58104;52.744;15.242;2023-07-20T12:01:33;2;1;
70554;PMS5003;58104;52.744;15.242;2023-07-20T12:03:59;3;3;
70554;PMS5003;58104;52.744;15.242;2023-07-20T12:06:24;2;2;
70554;PMS5003;58104;52.744;15.242;2023-07-20T12:08:50;2;1;
70554;PMS5003;58104;52.744;15.242;2023-07-20T12:13:42;1;1;
70554;PMS5003;58104;52.744;15.242;2023-07-20T12:16:09;2;2;
70554;PMS5003;58104;52.744;15.242;2023-07-20T12:18:34;1;1;
70554;PMS5003;58104;52.744;15.242;2023-07-20T12:20:59;1;1;
70554;PMS5003;58104;52.744;15.242;2023-07-20T12:23:22;1;1;
70554;PMS5003;58104;52.744;15.242;2023-07-20T12:25:47;2;2;
70554;PMS5003;58104;52.744;15.242;2023-07-20T12:28:13;0;0;
70554;PMS5003;58104;52.744;15.242;2023-07-20T12:30:38;1;1;
70554;PMS5003;58104;52.744;15.242;2023-07-20T12:33:03;1;1;
70554;PMS5003;58104;52.744;15.242;2023-07-20T12:35:29;1;1;
70554;PMS5003;58104;52.744;15.242;2023-07-20T12:37:54;1;1;
70554;PMS5003;58104;52.744;15.242;2023-07-20T12:40:19;3;3;
70554;PMS5003;58104;52.744;15.242;2023-07-20T12:42:45;2;2;
70554;PMS5003;58104;52.744;15.242;2023-07-20T12:45:10;2;2;
70554;PMS5003;58104;52.744;15.242;2023-07-20T12:47:35;2;2;
70554;PMS5003;58104;52.744;15.242;2023-07-20T12:50:01;2;2;
70554;PMS5003;58104;52.744;15.242;2023-07-20T12:52:26;0;0;
70554;PMS5003;58104;52.744;15.242;2023-07-20T12:54:51;2;2;
70554;PMS5003;58104;52.744;15.242;2023-07-20T12:57:17;2;2;
70554;PMS5003;58104;52.744;15.242;2023-07-20T12:59:42;2;2;
70554;PMS5003;58104;52.744;15.242;2023-07-20T13:02:08;2;2;
70554;PMS5003;58104;52.744;15.242;2023-07-20T13:04:33;2;2;
70554;PMS5003;58104;52.744;15.242;2023-07-20T13:06:58;2;2;
70554;PMS5003;58104;52.744;15.242;2023-07-20T13:09:24;3;3;
70554;PMS5003;58104;52.744;15.242;2023-07-20T13:11:49;3;3;
70554;PMS5003;58104;52.744;15.242;2023-07-20T13:14:15;2;2;
70554;PMS5003;58104;52.744;15.242;2023-07-20T13:16:40;2;2;
70554;PMS5003;58104;52.744;15.242;2023-07-20T13:19:05;1;1;
70554;PMS5003;58104;52.744;15.242;2023-07-20T13:21:31;1;1;
70554;PMS5003;58104;52.744;15.242;2023-07-20T13:23:56;1;1;
70554;PMS5003;58104;52.744;15.242;2023-07-20T13:26:21;3;3;
70554;PMS5003;58104;52.744;15.242;2023-07-20T13:28:47;2;2;
70554;PMS5003;58104;52.744;15.242;2023-07-20T13:31:12;2;1;
70554;PMS5003;58104;52.744;15.242;2023-07-20T13:33:37;2;2;
70554;PMS5003;58104;52.744;15.242;2023-07-20T13:36:03;1;1;
70554;PMS5003;58104;52.744;15.242;2023-07-20T13:38:28;2;1;
70554;PMS5003;58104;52.744;15.242;2023-07-20T13:40:54;2;2;
70554;PMS5003;58104;52.744;15.242;2023-07-20T13:43:19;2;2;
70554;PMS5003;58104;52.744;15.242;2023-07-20T13:45:44;4;4;
70554;PMS5003;58104;52.744;15.242;2023-07-20T13:48:10;2;2;
70554;PMS5003;58104;52.744;15.242;2023-07-20T13:50:35;3;3;
70554;PMS5003;58104;52.744;15.242;2023-07-20T13:53:01;2;2;
70554;PMS5003;58104;52.744;15.242;2023-07-20T13:55:26;2;2;
70554;PMS5003;58104;52.744;15.242;2023-07-20T13:57:51;2;2;
70554;PMS5003;58104;52.744;15.242;2023-07-20T14:00:17;2;2;
70554;PMS5003;58104;52.744;15.242;2023-07-20T14:02:42;4;4;
70554;PMS5003;58104;52.744;15.242;2023-07-20T14:05:08;3;2;
70554;PMS5003;58104;52.744;15.242;2023-07-20T14:07:33;2;2;
70554;PMS5003;58104;52.744;15.242;2023-07-20T14:09:58;2;2;
70554;PMS5003;58104;52.744;15.242;2023-07-20T14:12:23;1;1;
70554;PMS5003;58104;52.744;15.242;2023-07-20T14:14:49;2;2;
70554;PMS5003;58104;52.744;15.242;2023-07-20T14:17:14;2;2;
70554;PMS5003;58104;52.744;15.242;2023-07-20T14:19:40;6;5;
70554;PMS5003;58104;52.744;15.242;2023-07-20T14:22:05;5;5;
70554;PMS5003;58104;52.744;15.242;2023-07-20T14:24:30;4;4;
70554;PMS5003;58104;52.744;15.242;2023-07-20T14:26:56;7;4;
70554;PMS5003;58104;52.744;15.242;2023-07-20T14:29:21;7;5;
70554;PMS5003;58104;52.744;15.242;2023-07-20T14:31:46;8;8;
70554;PMS5003;58104;52.744;15.242;2023-07-20T14:34:12;4;4;
70554;PMS5003;58104;52.744;15.242;2023-07-20T14:36:37;8;8;
70554;PMS5003;58104;52.744;15.242;2023-07-20T14:39:03;4;4;
70554;PMS5003;58104;52.744;15.242;2023-07-20T14:41:28;5;5;
70554;PMS5003;58104;52.744;15.242;2023-07-20T14:43:53;4;4;
70554;PMS5003;58104;52.744;15.242;2023-07-20T14:46:19;10;7;
70554;PMS5003;58104;52.744;15.242;2023-07-20T14:48:44;12;12;
70554;PMS5003;58104;52.744;15.242;2023-07-20T14:51:09;6;6;
70554;PMS5003;58104;52.744;15.242;2023-07-20T14:53:35;9;8;
70554;PMS5003;58104;52.744;15.242;2023-07-20T14:56:00;8;7;
70554;PMS5003;58104;52.744;15.242;2023-07-20T14:58:25;8;6;
70554;PMS5003;58104;52.744;15.242;2023-07-20T15:00:51;7;7;
70554;PMS5003;58104;52.744;15.242;2023-07-20T15:03:16;11;9;
70554;PMS5003;58104;52.744;15.242;2023-07-20T15:05:41;8;6;
70554;PMS5003;58104;52.744;15.242;2023-07-20T15:08:06;6;6;
70554;PMS5003;58104;52.744;15.242;2023-07-20T15:10:32;6;5;
70554;PMS5003;58104;52.744;15.242;2023-07-20T15:12:57;2;2;
70554;PMS5003;58104;52.744;15.242;2023-07-20T15:15:23;4;4;
70554;PMS5003;58104;52.744;15.242;2023-07-20T15:17:48;6;6;
70554;PMS5003;58104;52.744;15.242;2023-07-20T15:20:13;3;3;
70554;PMS5003;58104;52.744;15.242;2023-07-20T15:22:39;4;4;
70554;PMS5003;58104;52.744;15.242;2023-07-20T15:25:05;4;4;
70554;PMS5003;58104;52.744;15.242;2023-07-20T15:27:30;4;4;
70554;PMS5003;58104;52.744;15.242;2023-07-20T15:29:55;3;3;
70554;PMS5003;58104;52.744;15.242;2023-07-20T15:32:20;4;4;
70554;PMS5003;58104;52.744;15.242;2023-07-20T15:34:46;5;3;
70554;PMS5003;58104;52.744;15.242;2023-07-20T15:37:11;4;4;
70554;PMS5003;58104;52.744;15.242;2023-07-20T15:39:37;3;2;
70554;PMS5003;58104;52.744;15.242;2023-07-20T15:42:02;2;2;
70554;PMS5003;58104;52.744;15.242;2023-07-20T15:44:27;2;2;
70554;PMS5003;58104;52.744;15.242;2023-07-20T15:46:53;4;4;
70554;PMS5003;58104;52.744;15.242;2023-07-20T15:49:18;1;1;
70554;PMS5003;58104;52.744;15.242;2023-07-20T15:51:43;3;3;
70554;PMS5003;58104;52.744;15.242;2023-07-20T15:54:09;4;4;
70554;PMS5003;58104;52.744;15.242;2023-07-20T15:56:34;6;4;
70554;PMS5003;58104;52.744;15.242;2023-07-20T15:58:59;3;3;
70554;PMS5003;58104;52.744;15.242;2023-07-20T16:01:24;5;4;
70554;PMS5003;58104;52.744;15.242;2023-07-20T16:03:50;3;3;
70554;PMS5003;58104;52.744;15.242;2023-07-20T16:06:15;2;2;
70554;PMS5003;58104;52.744;15.242;2023-07-20T16:08:41;3;3;
70554;PMS5003;58104;52.744;15.242;2023-07-20T16:11:06;3;3;
70554;PMS5003;58104;52.744;15.242;2023-07-20T16:13:31;4;2;
70554;PMS5003;58104;52.744;15.242;2023-07-20T16:15:57;2;2;
70554;PMS5003;58104;52.744;15.242;2023-07-20T16:18:22;4;4;
70554;PMS5003;58104;52.744;15.242;2023-07-20T16:20:47;3;3;
70554;PMS5003;58104;52.744;15.242;2023-07-20T16:23:13;5;5;
70554;PMS5003;58104;52.744;15.242;2023-07-20T16:25:38;4;4;
70554;PMS5003;58104;52.744;15.242;2023-07-20T16:28:04;3;3;
70554;PMS5003;58104;52.744;15.242;2023-07-20T16:30:29;6;4;
70554;PMS5003;58104;52.744;15.242;2023-07-20T16:32:54;5;5;
70554;PMS5003;58104;52.744;15.242;2023-07-20T16:35:20;3;3;
70554;PMS5003;58104;52.744;15.242;2023-07-20T16:37:45;3;3;
70554;PMS5003;58104;52.744;15.242;2023-07-20T16:40:11;4;4;
70554;PMS5003;58104;52.744;15.242;2023-07-20T16:42:36;4;4;
70554;PMS5003;58104;52.744;15.242;2023-07-20T16:45:01;3;3;
70554;PMS5003;58104;52.744;15.242;2023-07-20T16:47:27;4;4;
70554;PMS5003;58104;52.744;15.242;2023-07-20T16:49:52;4;4;
70554;PMS5003;58104;52.744;15.242;2023-07-20T16:52:17;4;4;
70554;PMS5003;58104;52.744;15.242;2023-07-20T16:54:43;7;5;
70554;PMS5003;58104;52.744;15.242;2023-07-20T16:57:08;4;4;
70554;PMS5003;58104;52.744;15.242;2023-07-20T16:59:34;6;3;
70554;PMS5003;58104;52.744;15.242;2023-07-20T17:01:59;5;5;
70554;PMS5003;58104;52.744;15.242;2023-07-20T17:04:24;3;3;
70554;PMS5003;58104;52.744;15.242;2023-07-20T17:06:50;5;5;
70554;PMS5003;58104;52.744;15.242;2023-07-20T17:09:15;3;3;
70554;PMS5003;58104;52.744;15.242;2023-07-20T17:11:41;5;5;
70554;PMS5003;58104;52.744;15.242;2023-07-20T17:14:07;5;5;
70554;PMS5003;58104;52.744;15.242;2023-07-20T17:16:31;5;5;
70554;PMS5003;58104;52.744;15.242;2023-07-20T17:18:57;7;6;
70554;PMS5003;58104;52.744;15.242;2023-07-20T17:21:22;7;6;
70554;PMS5003;58104;52.744;15.242;2023-07-20T17:23:48;5;5;
70554;PMS5003;58104;52.744;15.242;2023-07-20T17:26:13;5;5;
70554;PMS5003;58104;52.744;15.242;2023-07-20T17:28:38;6;6;
70554;PMS5003;58104;52.744;15.242;2023-07-20T17:31:04;7;7;
70554;PMS5003;58104;52.744;15.242;2023-07-20T17:33:29;4;4;
70554;PMS5003;58104;52.744;15.242;2023-07-20T17:35:54;7;5;
70554;PMS5003;58104;52.744;15.242;2023-07-20T17:38:20;5;5;
70554;PMS5003;58104;52.744;15.242;2023-07-20T17:40:45;5;3;
70554;PMS5003;58104;52.744;15.242;2023-07-20T17:43:11;8;8;
70554;PMS5003;58104;52.744;15.242;2023-07-20T17:45:36;12;12;
70554;PMS5003;58104;52.744;15.242;2023-07-20T17:48:01;15;13;
70554;PMS5003;58104;52.744;15.242;2023-07-20T17:50:27;14;14;
70554;PMS5003;58104;52.744;15.242;2023-07-20T17:52:52;15;12;
70554;PMS5003;58104;52.744;15.242;2023-07-20T17:55:17;11;10;
70554;PMS5003;58104;52.744;15.242;2023-07-20T17:57:42;10;8;
70554;PMS5003;58104;52.744;15.242;2023-07-20T18:00:11;12;10;
70554;PMS5003;58104;52.744;15.242;2023-07-20T18:02:36;9;8;
70554;PMS5003;58104;52.744;15.242;2023-07-20T18:05:01;11;10;
70554;PMS5003;58104;52.744;15.242;2023-07-20T18:07:26;9;8;
70554;PMS5003;58104;52.744;15.242;2023-07-20T18:09:51;13;11;
70554;PMS5003;58104;52.744;15.242;2023-07-20T18:12:16;8;8;
70554;PMS5003;58104;52.744;15.242;2023-07-20T18:14:42;8;8;
70554;PMS5003;58104;52.744;15.242;2023-07-20T18:17:07;8;6;
70554;PMS5003;58104;52.744;15.242;2023-07-20T18:19:33;8;6;
70554;PMS5003;58104;52.744;15.242;2023-07-20T18:21:58;9;9;
70554;PMS5003;58104;52.744;15.242;2023-07-20T18:24:23;10;10;
70554;PMS5003;58104;52.744;15.242;2023-07-20T18:26:48;6;6;
70554;PMS5003;58104;52.744;15.242;2023-07-20T18:29:14;11;7;
70554;PMS5003;58104;52.744;15.242;2023-07-20T18:31:39;6;6;
70554;PMS5003;58104;52.744;15.242;2023-07-20T18:34:05;6;6;
70554;PMS5003;58104;52.744;15.242;2023-07-20T18:36:30;7;7;
70554;PMS5003;58104;52.744;15.242;2023-07-20T18:38:55;6;6;
70554;PMS5003;58104;52.744;15.242;2023-07-20T18:41:21;9;6;
70554;PMS5003;58104;52.744;15.242;2023-07-20T18:43:47;8;7;
70554;PMS5003;58104;52.744;15.242;2023-07-20T18:46:11;5;5;
70554;PMS5003;58104;52.744;15.242;2023-07-20T18:48:37;8;7;
70554;PMS5003;58104;52.744;15.242;2023-07-20T18:51:02;5;5;
70554;PMS5003;58104;52.744;15.242;2023-07-20T18:53:28;4;4;
70554;PMS5003;58104;52.744;15.242;2023-07-20T18:55:53;7;4;
70554;PMS5003;58104;52.744;15.242;2023-07-20T18:58:18;7;5;
70554;PMS5003;58104;52.744;15.242;2023-07-20T19:00:44;10;7;